Flight Track Log - Related Links

Times and Time Zones

All times are in EDT time to prevent confusion due to time zone crossing. See the NKS612 flight status page for this flight to view local times or setup timezone preferences in your user account.

Time Position Orientation Groundspeed Altitude Reporting Facility
EDT Latitude Longitude Course Direction KTS MPH feet Rate Location/Type
Sat 03:22:12 AM 36.0760 -115.1610 270° West 175 201 2,500  Level FlightAware ADS-B
Sat 03:22:42 AM 36.0770 -115.1910 272° West 178 205 3,600 1,418 Climbing FlightAware ADS-B
Sat 03:23:07 AM 36.0770 -115.2170 270° West 210 242 3,800 873 Climbing FlightAware ADS-B
Sat 03:23:37 AM 36.0790 -115.2570 274° West 251 289 4,400 1,467 Climbing FlightAware ADS-B
Sat 03:23:52 AM 36.0900 -115.2780 303° West 266 306 4,900 2,400 Climbing FlightAware ADS-B
Sat 03:24:02 AM 36.1000 -115.2860 327° Northwest 270 311 5,400 2,880 Climbing FlightAware ADS-B
Sat 03:24:17 AM 36.1160 -115.2920 343° North 271 312 6,100 2,933 Climbing FlightAware ADS-B
Sat 03:24:47 AM 36.1530 -115.2830 11° North 273 314 7,600 3,067 Climbing FlightAware ADS-B
Sat 03:25:02 AM 36.1670 -115.2660 44° Northeast 273 314 8,400 2,850 Climbing FlightAware ADS-B
Sat 03:25:27 AM 36.1820 -115.2320 61° Northeast 280 322 9,500 1,971 Climbing FlightAware ADS-B
Sat 03:26:12 AM 36.1970 -115.1550 76° East 327 376 10,700 1,624 Climbing FlightAware ADS-B
Sat 03:26:52 AM 36.1970 -115.0770 90° East 354 407 11,800 2,100 Climbing FlightAware ADS-B
Sat 03:27:32 AM 36.1980 -114.9960 89° East 359 413 13,500 2,259 Climbing FlightAware ADS-B
Sat 03:28:17 AM 36.1990 -114.9020 89° East 371 427 15,000 2,047 Climbing FlightAware ADS-B
Sat 03:28:57 AM 36.2000 -114.8140 89° East 382 440 16,400 2,175 Climbing FlightAware ADS-B
Sat 03:29:37 AM 36.2000 -114.7270 90° East 385 443 17,900 1,906 Climbing FlightAware ADS-B
Sat 03:30:22 AM 36.1990 -114.6280 91° East 399 459 19,100 1,694 Climbing FlightAware ADS-B
Sat 03:31:02 AM 36.1980 -114.5380 91° East 406 467 20,300 1,694 Climbing FlightAware ADS-B
Sat 03:31:47 AM 36.1960 -114.4280 91° East 415 478 21,500 1,600 Climbing FlightAware ADS-B
Sat 03:32:17 AM 36.2020 -114.3570 84° East 410 472 22,300 1,714 Climbing FlightAware ADS-B
Sat 03:32:57 AM 36.2430 -114.2820 56° Northeast 404 465 23,500 1,553 Climbing FlightAware ADS-B
Sat 03:33:42 AM 36.2970 -114.2020 50° Northeast 413 475 24,500 1,341 Climbing FlightAware ADS-B
Sat 03:34:22 AM 36.3450 -114.1290 51° Northeast 415 478 25,400 1,482 Climbing FlightAware ADS-B
Sat 03:35:07 AM 36.4010 -114.0440 51° Northeast 415 478 26,600 1,271 Climbing FlightAware ADS-B
Sat 03:35:47 AM 36.4480 -113.9730 51° Northeast 421 484 27,200 1,050 Climbing FlightAware ADS-B
Sat 03:36:27 AM 36.4990 -113.8940 51° Northeast 425 489 28,000 1,129 Climbing FlightAware ADS-B
Sat 03:37:12 AM 36.5540 -113.8100 51° Northeast 428 493 28,800 1,059 Climbing FlightAware ADS-B
Sat 03:37:52 AM 36.6030 -113.7340 51° Northeast 430 495 29,500 1,050 Climbing FlightAware ADS-B
Sat 03:38:32 AM 36.6550 -113.6550 51° Northeast 433 498 30,200 1,341 Climbing FlightAware ADS-B
Sat 03:39:17 AM 36.7110 -113.5690 51° Northeast 424 488 31,400 1,200 Climbing FlightAware ADS-B
Sat 03:39:52 AM 36.7530 -113.5040 51° Northeast 428 493 31,800 847 Climbing FlightAware ADS-B
Sat 03:40:42 AM 36.8150 -113.4080 51° Northeast 429 494 32,600 933 Climbing FlightAware ADS-B
Sat 03:41:22 AM 36.8650 -113.3300 51° Northeast 431 496 33,200 1,050 Climbing FlightAware ADS-B
Sat 03:42:02 AM 36.9150 -113.2520 51° Northeast 426 490 34,000 988 Climbing FlightAware ADS-B
Sat 03:42:47 AM 36.9710 -113.1640 51° Northeast 426 490 34,600 776 Climbing FlightAware ADS-B
Sat 03:43:27 AM 37.0210 -113.0860 51° Northeast 424 488 35,100 825 Climbing FlightAware ADS-B
Sat 03:44:07 AM 37.0700 -113.0100 51° Northeast 422 486 35,700 776 Climbing FlightAware ADS-B
Sat 03:44:52 AM 37.1220 -112.9270 52° Northeast 422 486 36,200 635 Climbing FlightAware ADS-B
Sat 03:45:32 AM 37.1700 -112.8520 51° Northeast 423 487 36,600 375 Climbing FlightAware ADS-B
Sat 03:46:12 AM 37.2180 -112.7770 51° Northeast 425 489 36,700 300 Climbing FlightAware ADS-B
Sat 03:46:52 AM 37.2680 -112.6960 52° Northeast 426 490 37,000 212 Climbing FlightAware ADS-B
Sat 03:47:37 AM 37.3250 -112.6060 51° Northeast 431 496 37,000  Level FlightAware ADS-B
Sat 03:48:17 AM 37.3690 -112.5370 51° Northeast 431 496 37,000  Level FlightAware ADS-B
Sat 03:48:57 AM 37.4120 -112.4710 51° Northeast 431 496 37,000  Level FlightAware ADS-B
Sat 03:49:37 AM 37.4550 -112.4050 51° Northeast 431 496 37,000  Level FlightAware ADS-B
Sat 03:50:27 AM 37.5080 -112.3220 51° Northeast 431 496 37,000  Level FlightAware ADS-B
Sat 03:51:07 AM 37.5510 -112.2550 51° Northeast 431 496 37,000  Level FlightAware ADS-B
Sat 03:51:47 AM 37.5930 -112.1890 51° Northeast 431 496 37,000  Level FlightAware ADS-B
Sat 03:52:27 AM 37.6360 -112.1220 51° Northeast 431 496 37,000  Level FlightAware ADS-B
Sat 03:53:17 AM 37.6890 -112.0390 51° Northeast 431 496 37,000  Level FlightAware ADS-B
Sat 03:53:57 AM 37.7320 -111.9730 51° Northeast 431 496 37,000  Level FlightAware ADS-B
Sat 03:54:37 AM 37.7750 -111.9060 51° Northeast 431 496 37,000  Level FlightAware ADS-B
Sat 03:55:17 AM 37.8170 -111.8390 52° Northeast 431 496 37,000  Level FlightAware ADS-B
Sat 03:55:57 AM 37.8600 -111.7720 51° Northeast 431 496 37,000  Level FlightAware ADS-B
Sat 03:56:47 AM 37.9130 -111.6890 51° Northeast 431 496 37,000  Level FlightAware ADS-B
Sat 03:57:27 AM 37.9560 -111.6220 51° Northeast 431 496 37,000  Level FlightAware ADS-B
Sat 03:58:34 AM 38.0764 -111.2331 51° Northeast 440 506 37,000  Level Salt Lake Center
Sat 03:59:35 AM 38.1433 -111.1033 57° Northeast 441 507 37,000  Level Salt Lake Center
Sat 04:00:35 AM 38.2097 -110.9722 57° Northeast 442 509 37,000  Level Salt Lake Center
Sat 04:01:35 AM 38.2700 -110.8517 57° Northeast 440 506 37,000  Level Salt Lake Center
Sat 04:02:35 AM 38.3336 -110.7258 57° Northeast 441 507 37,000  Level Salt Lake Center
Sat 04:03:35 AM 38.4078 -110.5792 57° Northeast 442 509 37,000  Level Salt Lake Center
Sat 04:04:36 AM 38.4703 -110.4547 57° Northeast 438 504 37,000  Level Salt Lake Center
Sat 04:05:36 AM 38.5322 -110.3292 58° Northeast 437 503 37,000  Level Salt Lake Center
Sat 04:11:12 AM 38.8880 -109.6050 58° Northeast 431 496 37,000  Level FlightAware ADS-B
Sat 04:11:52 AM 38.9300 -109.5200 58° Northeast 431 496 37,000  Level FlightAware ADS-B
Sat 04:12:47 AM 38.9720 -109.4320 58° Northeast 432 497 37,000  Level FlightAware ADS-B
Sat 04:13:27 AM 39.0080 -109.3580 58° Northeast 432 497 37,000  Level FlightAware ADS-B
Sat 04:14:17 AM 39.0530 -109.2650 58° Northeast 432 497 37,000  Level FlightAware ADS-B
Sat 04:14:57 AM 39.0890 -109.1910 58° Northeast 432 497 37,000  Level FlightAware ADS-B
Sat 04:15:37 AM 39.1250 -109.1170 58° Northeast 432 497 37,000  Level FlightAware ADS-B
Sat 04:16:17 AM 39.1610 -109.0420 58° Northeast 432 497 37,000  Level FlightAware ADS-B
Sat 04:17:02 AM 39.2590 -108.8330 59° Northeast 431 496 37,000  Level FlightAware ADS-B
Sat 04:17:47 AM 39.3080 -108.7310 58° Northeast 430 495 37,000  Level FlightAware ADS-B
Sat 04:18:27 AM 39.3490 -108.6440 59° Northeast 429 494 37,000  Level FlightAware ADS-B
Sat 04:19:07 AM 39.3900 -108.5560 59° Northeast 429 494 37,000  Level FlightAware ADS-B
Sat 04:19:52 AM 39.4370 -108.4560 59° Northeast 428 493 37,000  Level FlightAware ADS-B
Sat 04:20:32 AM 39.4770 -108.3700 59° Northeast 429 494 37,000  Level FlightAware ADS-B
Sat 04:21:17 AM 39.5240 -108.2700 59° Northeast 431 496 37,000  Level FlightAware ADS-B
Sat 04:21:57 AM 39.5650 -108.1830 59° Northeast 432 497 37,000  Level FlightAware ADS-B
Sat 04:22:42 AM 39.6120 -108.0820 59° Northeast 432 497 37,000  Level FlightAware ADS-B
Sat 04:23:22 AM 39.6520 -107.9950 59° Northeast 432 497 37,000  Level FlightAware ADS-B
Sat 04:24:02 AM 39.6940 -107.9050 59° Northeast 431 496 37,000  Level FlightAware ADS-B
Sat 04:24:47 AM 39.7380 -107.8080 59° Northeast 430 495 37,000  Level FlightAware ADS-B
Sat 04:25:27 AM 39.7770 -107.7230 59° Northeast 428 493 37,000  Level FlightAware ADS-B
Sat 04:26:07 AM 39.8190 -107.6330 59° Northeast 427 491 37,000  Level FlightAware ADS-B
Sat 04:26:23 AM 39.8384 -107.5890 60° Northeast 429 494 37,000  Level FlightAware ADS-B
Sat 04:26:53 AM 39.8688 -107.5220 59° Northeast 429 494 37,000  Level FlightAware ADS-B
Sat 04:27:23 AM 39.8991 -107.4560 59° Northeast 429 494 37,000  Level FlightAware ADS-B
Sat 04:27:54 AM 39.9301 -107.3880 59° Northeast 430 495 37,000  Level FlightAware ADS-B
Sat 04:28:26 AM 39.9625 -107.3160 60° Northeast 431 496 37,000  Level FlightAware ADS-B
Sat 04:29:12 AM 40.0050 -107.2220 59° Northeast 431 496 37,000  Level FlightAware ADS-B
Sat 04:29:34 AM 40.0313 -107.1630 60° Northeast 431 496 37,000  Level FlightAware ADS-B
Sat 04:30:13 AM 40.0704 -107.0770 59° Northeast 431 496 37,000  Level FlightAware ADS-B
Sat 04:30:43 AM 40.1008 -107.0090 60° Northeast 430 495 37,000  Level FlightAware ADS-B
Sat 04:31:22 AM 40.1392 -106.9230 60° Northeast 429 494 37,000  Level FlightAware ADS-B
Sat 04:31:52 AM 40.1695 -106.8550 60° Northeast 429 494 37,000  Level FlightAware ADS-B
Sat 04:32:28 AM 40.2056 -106.7740 60° Northeast 429 494 37,000  Level FlightAware ADS-B
Sat 04:33:07 AM 40.2437 -106.6880 60° Northeast 431 496 37,000  Level FlightAware ADS-B
Sat 04:33:46 AM 40.2832 -106.5990 60° Northeast 432 497 37,000  Level FlightAware ADS-B
Sat 04:34:16 AM 40.3132 -106.5310 60° Northeast 431 496 37,000  Level FlightAware ADS-B
Sat 04:34:47 AM 40.3400 -106.4700 60° Northeast 431 496 37,000  Level FlightAware ADS-B
Sat 04:35:11 AM 40.3680 -106.4060 60° Northeast 431 496 37,000  Level FlightAware ADS-B
Sat 04:36:12 AM 40.4240 -106.2780 60° Northeast 430 495 37,000  Level FlightAware ADS-B
Sat 04:36:33 AM 40.4486 -106.2230 60° Northeast 431 496 37,000  Level FlightAware ADS-B
Sat 04:37:04 AM 40.4800 -106.1510 60° Northeast 430 495 37,000  Level FlightAware ADS-B
Sat 04:37:55 AM 40.5301 -106.0350 60° Northeast 430 495 37,000  Level FlightAware ADS-B
Sat 04:38:26 AM 40.5602 -105.9660 60° Northeast 430 495 37,000  Level FlightAware ADS-B
Sat 04:39:12 AM 40.6030 -105.8670 60° Northeast 428 493 37,000  Level FlightAware ADS-B
Sat 04:39:57 AM 40.6480 -105.7630 60° Northeast 428 493 37,000  Level FlightAware ADS-B
Sat 04:40:37 AM 40.6870 -105.6710 61° Northeast 428 493 37,000  Level FlightAware ADS-B
Sat 04:41:07 AM 40.7171 -105.6010 60° Northeast 428 493 37,000  Level FlightAware ADS-B
Sat 04:41:38 AM 40.7468 -105.5310 61° Northeast 428 493 37,000  Level FlightAware ADS-B
Sat 04:42:08 AM 40.7765 -105.4620 60° Northeast 428 493 37,000  Level FlightAware ADS-B
Sat 04:42:42 AM 40.8070 -105.3900 61° Northeast 426 490 37,000  Level FlightAware ADS-B
Sat 04:42:59 AM 40.8257 -105.3460 61° Northeast 426 490 37,000  Level FlightAware ADS-B
Sat 04:43:33 AM 40.8578 -105.2700 61° Northeast 426 490 37,000  Level FlightAware ADS-B
Sat 04:44:03 AM 40.8868 -105.2010 61° Northeast 425 489 37,000  Level FlightAware ADS-B
Sat 04:44:34 AM 40.9161 -105.1320 61° Northeast 424 488 37,000  Level FlightAware ADS-B
Sat 04:45:04 AM 40.9448 -105.0640 61° Northeast 424 488 37,000  Level FlightAware ADS-B
Sat 04:45:34 AM 40.9735 -104.9960 61° Northeast 424 488 37,000  Level FlightAware ADS-B
Sat 04:46:08 AM 41.0058 -104.9190 61° Northeast 425 489 37,000  Level FlightAware ADS-B
Sat 04:46:38 AM 41.0341 -104.8510 61° Northeast 425 489 37,000  Level FlightAware ADS-B
Sat 04:47:08 AM 41.0626 -104.7820 61° Northeast 426 490 37,000  Level FlightAware ADS-B
Sat 04:47:39 AM 41.0914 -104.7130 61° Northeast 426 490 37,000  Level FlightAware ADS-B
Sat 04:48:09 AM 41.1201 -104.6440 61° Northeast 426 490 37,000  Level FlightAware ADS-B
Sat 04:48:39 AM 41.1488 -104.5740 61° Northeast 424 488 37,000  Level FlightAware ADS-B
Sat 04:49:10 AM 41.1772 -104.5060 61° Northeast 424 488 37,000  Level FlightAware ADS-B
Sat 04:49:41 AM 41.2062 -104.4350 61° Northeast 422 486 37,000  Level FlightAware ADS-B
Sat 04:50:11 AM 41.2344 -104.3660 61° Northeast 421 484 37,000  Level FlightAware ADS-B
Sat 04:50:41 AM 41.2626 -104.2980 61° Northeast 421 484 37,000  Level FlightAware ADS-B
Sat 04:51:11 AM 41.2906 -104.2290 62° Northeast 421 484 37,000  Level FlightAware ADS-B
Sat 04:51:36 AM 41.3136 -104.1730 61° Northeast 421 484 37,000  Level FlightAware ADS-B
Sat 04:52:06 AM 41.3415 -104.1050 61° Northeast 421 484 37,000  Level FlightAware ADS-B
Sat 04:52:36 AM 41.3693 -104.0360 62° Northeast 421 484 37,000  Level FlightAware ADS-B
Sat 04:53:07 AM 41.3976 -103.9660 62° Northeast 422 486 37,000  Level FlightAware ADS-B
Sat 04:53:37 AM 41.4256 -103.8970 62° Northeast 424 488 37,000  Level FlightAware ADS-B
Sat 04:54:08 AM 41.4537 -103.8270 62° Northeast 423 487 37,000  Level FlightAware ADS-B
Sat 04:54:38 AM 41.4816 -103.7580 62° Northeast 423 487 37,000  Level FlightAware ADS-B
Sat 04:55:08 AM 41.5092 -103.6890 62° Northeast 422 486 37,000  Level FlightAware ADS-B
Sat 04:55:39 AM 41.5374 -103.6190 62° Northeast 421 484 37,000  Level FlightAware ADS-B
Sat 04:56:09 AM 41.5650 -103.5500 62° Northeast 421 484 37,000  Level FlightAware ADS-B
Sat 04:56:39 AM 41.5924 -103.4810 62° Northeast 423 487 37,000  Level FlightAware ADS-B
Sat 04:57:09 AM 41.6204 -103.4110 62° Northeast 424 488 37,000  Level FlightAware ADS-B
Sat 04:57:39 AM 41.6481 -103.3410 62° Northeast 425 489 37,000  Level FlightAware ADS-B
Sat 04:58:10 AM 41.6758 -103.2710 62° Northeast 428 493 37,000  Level FlightAware ADS-B
Sat 04:58:40 AM 41.7036 -103.2000 62° Northeast 429 494 37,000  Level FlightAware ADS-B
Sat 04:59:10 AM 41.7312 -103.1300 62° Northeast 430 495 37,000  Level FlightAware ADS-B
Sat 04:59:40 AM 41.7595 -103.0580 62° Northeast 432 497 37,000  Level FlightAware ADS-B
Sat 05:00:10 AM 41.7876 -102.9870 62° Northeast 433 498 37,000  Level FlightAware ADS-B
Sat 05:00:41 AM 41.8155 -102.9160 62° Northeast 432 497 37,000 98 Level FlightAware ADS-B
Sat 05:01:11 AM 41.8435 -102.8440 62° Northeast 429 494 37,100  Climbing FlightAware ADS-B
Sat 05:01:41 AM 41.8709 -102.7730 63° Northeast 427 491 37,000 -100 Descending FlightAware ADS-B
Sat 05:02:11 AM 41.8983 -102.7020 63° Northeast 427 491 37,000  Level FlightAware ADS-B
Sat 05:02:42 AM 41.9266 -102.6290 62° Northeast 427 491 37,000  Level FlightAware ADS-B
Sat 05:03:13 AM 41.9539 -102.5580 63° Northeast 425 489 37,000  Level FlightAware ADS-B
Sat 05:03:43 AM 41.9811 -102.4880 62° Northeast 423 487 37,000  Level FlightAware ADS-B
Sat 05:04:13 AM 42.0086 -102.4170 62° Northeast 421 484 37,000  Level FlightAware ADS-B
Sat 05:04:44 AM 42.0353 -102.3470 63° Northeast 419 482 37,000  Level FlightAware ADS-B
Sat 05:05:14 AM 42.0620 -102.2770 63° Northeast 417 480 37,000  Level FlightAware ADS-B
Sat 05:05:44 AM 42.0883 -102.2090 62° Northeast 416 479 37,000  Level FlightAware ADS-B
Sat 05:06:14 AM 42.1149 -102.1390 63° Northeast 418 481 37,000  Level FlightAware ADS-B
Sat 05:06:44 AM 42.1414 -102.0690 63° Northeast 419 482 37,000  Level FlightAware ADS-B
Sat 05:07:14 AM 42.1680 -101.9990 63° Northeast 420 483 37,000  Level FlightAware ADS-B
Sat 05:07:49 AM 42.1983 -101.9190 63° Northeast 420 483 37,000  Level FlightAware ADS-B
Sat 05:08:19 AM 42.2248 -101.8480 63° Northeast 421 484 37,000  Level FlightAware ADS-B
Sat 05:08:50 AM 42.2519 -101.7760 63° Northeast 423 487 37,000  Level FlightAware ADS-B
Sat 05:09:20 AM 42.2789 -101.7040 63° Northeast 423 487 37,000  Level FlightAware ADS-B
Sat 05:10:02 AM 42.3108 -101.6167 63° Northeast 422 486 37,000  Level Denver Center
Sat 05:11:02 AM 42.3628 -101.4800 63° Northeast 425 489 37,000  Level Denver Center
Sat 05:12:03 AM 42.4128 -101.3439 64° Northeast 423 487 37,000  Level Denver Center
Sat 05:13:03 AM 42.4719 -101.1839 63° Northeast 424 488 37,000  Level Denver Center
Sat 05:14:03 AM 42.5217 -101.0475 64° Northeast 422 486 37,000  Level Denver Center
Sat 05:15:03 AM 42.5722 -100.9111 63° Northeast 422 486 37,000  Level Denver Center
Sat 05:16:03 AM 42.6139 -100.7956 64° Northeast 424 488 37,000  Level Denver Center
Sat 05:17:03 AM 42.6800 -100.6081 64° Northeast 429 494 37,000  Level Denver Center
Sat 05:18:03 AM 42.7294 -100.4675 64° Northeast 429 494 37,000  Level Denver Center
Sat 05:19:04 AM 42.7800 -100.3317 63° Northeast 422 486 37,000  Level Denver Center
Sat 05:20:04 AM 42.8311 -100.1856 64° Northeast 426 490 37,000  Level Denver Center
Sat 05:21:04 AM 42.8831 -100.0392 64° Northeast 429 494 37,000  Level Denver Center
Sat 05:21:36 AM 42.9131 -99.9558 64° Northeast 424 488 37,000  Level Minneapolis Center
Sat 05:22:36 AM 42.9650 -99.8086 64° Northeast 427 491 37,000  Level Minneapolis Center
Sat 05:23:36 AM 43.0181 -99.6558 65° Northeast 432 497 37,000  Level Minneapolis Center
Sat 05:24:36 AM 43.0703 -99.5072 64° Northeast 432 497 37,000  Level Minneapolis Center
Sat 05:25:36 AM 43.1206 -99.3586 65° Northeast 431 496 37,000  Level Minneapolis Center
Sat 05:26:37 AM 43.1703 -99.2169 64° Northeast 431 496 37,000  Level Minneapolis Center
Sat 05:27:37 AM 43.2203 -99.0669 65° Northeast 433 498 37,000  Level Minneapolis Center
Sat 05:28:37 AM 43.2722 -98.9161 65° Northeast 432 497 37,000  Level Minneapolis Center
Sat 05:29:37 AM 43.3222 -98.7658 65° Northeast 433 498 37,000  Level Minneapolis Center
Sat 05:30:37 AM 43.3683 -98.6136 67° East 434 499 37,000  Level Minneapolis Center
Sat 05:31:38 AM 43.4164 -98.4628 66° East 432 497 37,000  Level Minneapolis Center
Sat 05:32:38 AM 43.4639 -98.3094 67° East 436 502 37,000  Level Minneapolis Center
Sat 05:33:38 AM 43.5122 -98.1569 66° East 436 502 37,000  Level Minneapolis Center
Sat 05:34:38 AM 43.5594 -98.0036 67° East 436 502 37,000  Level Minneapolis Center
Sat 05:35:39 AM 43.6064 -97.8492 67° East 439 505 37,000  Level Minneapolis Center
Sat 05:36:39 AM 43.6542 -97.6950 67° East 438 504 37,000  Level Minneapolis Center
Sat 05:37:39 AM 43.7014 -97.5392 67° East 440 506 37,000  Level Minneapolis Center
Sat 05:38:39 AM 43.7478 -97.3836 68° East 440 506 37,000  Level Minneapolis Center
Sat 05:39:39 AM 43.7947 -97.2278 67° East 440 506 37,000  Level Minneapolis Center
Sat 05:40:40 AM 43.8408 -97.0733 67° East 437 503 37,000  Level Minneapolis Center
Sat 05:41:40 AM 43.8864 -96.9183 68° East 436 502 37,000  Level Minneapolis Center
Sat 05:42:40 AM 43.9317 -96.7650 68° East 433 498 37,000  Level Minneapolis Center
Sat 05:43:40 AM 43.9769 -96.6100 68° East 435 501 37,000  Level Minneapolis Center
Sat 05:44:41 AM 44.0219 -96.4544 68° East 437 503 37,000  Level Minneapolis Center
Sat 05:45:41 AM 44.0672 -96.2997 68° East 437 503 37,000  Level Minneapolis Center
Sat 05:46:41 AM 44.1111 -96.1469 68° East 439 505 37,000  Level Minneapolis Center
Sat 05:47:41 AM 44.1553 -95.9939 68° East 440 506 37,000  Level Minneapolis Center
Sat 05:48:42 AM 44.2086 -95.8067 68° East 439 505 37,000  Level Minneapolis Center
Sat 05:49:42 AM 44.2522 -95.6494 69° East 438 504 37,000 -200 Level Minneapolis Center
Sat 05:50:42 AM 44.2972 -95.4917 68° East 439 505 36,600 -1,150 Descending Minneapolis Center
Sat 05:51:42 AM 44.3411 -95.3317 69° East 443 510 34,700 -2,132 Descending Minneapolis Center
Sat 05:52:43 AM 44.3858 -95.1725 68° East 442 509 32,300 -2,876 Descending Minneapolis Center
Sat 05:53:43 AM 44.4297 -95.0097 69° East 447 514 28,900 -3,200 Descending Minneapolis Center
Sat 05:54:43 AM 44.4767 -94.8422 69° East 459 528 25,900 -2,900 Descending Minneapolis Center
Sat 05:55:43 AM 44.5225 -94.6747 69° East 462 532 23,100 -2,678 Descending Minneapolis Center
Sat 05:56:44 AM 44.5617 -94.5211 70° East 457 526 20,500 -2,678 Descending Minneapolis Center
Sat 05:57:44 AM 44.6053 -94.3631 69° East 441 507 17,700 -2,091 Descending Minneapolis Center
Sat 05:58:56 AM 44.6456 -94.2100 70° East 420 483 15,900 -1,267 Descending Minneapolis Center
Sat 06:04:17 AM 44.8250 -93.4720 70° East 296 341 9,400 -1,316 Descending FlightAware ADS-B
Sat 06:04:47 AM 44.8320 -93.4120 81° East 289 333 8,200 -2,200 Descending FlightAware ADS-B
Sat 06:05:17 AM 44.8260 -93.3570 99° East 286 329 7,200 -2,073 Descending FlightAware ADS-B
Sat 06:05:42 AM 44.8090 -93.3160 120° Southeast 278 320 6,300 -1,950 Descending FlightAware ADS-B
Sat 06:05:57 AM 44.8000 -93.2930 119° Southeast 280 322 5,900 -667 Descending FlightAware ADS-B
Sat 06:06:27 AM 44.7820 -93.2480 119° Southeast 255 293 5,800 -109 Descending FlightAware ADS-B
Sat 06:06:52 AM 44.7680 -93.2120 119° Southeast 229 264 5,800 -92 Level FlightAware ADS-B
Sat 06:07:32 AM 44.7490 -93.1640 119° Southeast 223 257 5,700 -847 Descending FlightAware ADS-B
Sat 06:08:17 AM 44.7330 -93.1110 113° Southeast 202 232 4,600 -1,280 Descending FlightAware ADS-B
Sat 06:08:47 AM 44.7450 -93.0820 60° Northeast 201 231 4,100 -982 Descending FlightAware ADS-B
Sat 06:09:12 AM 44.7660 -93.0640 31° Northeast 196 226 3,700 -1,200 Descending FlightAware ADS-B
Sat 06:09:42 AM 44.7940 -93.0590 North 196 226 3,000 -900 Descending FlightAware ADS-B
Sat 06:10:12 AM 44.8170 -93.0720 338° Northwest 181 208 2,800 -545 Descending FlightAware ADS-B
Sat 06:10:37 AM 44.8260 -93.0920 302° West 166 191 2,500 -360 Descending FlightAware ADS-B
Sat 06:11:02 AM 44.8360 -93.1150 302° West 166 191 2,500 -873 Level FlightAware ADS-B
Sat 06:11:32 AM 44.8470 -93.1410 301° West 143 165 1,700 -1,200 Descending FlightAware ADS-B
Sat 06:12:02 AM 44.8580 -93.1650 303° West 139 160 1,300 -800 Descending FlightAware ADS-B
Sat 06:12:32 AM 44.8680 -93.1880 302° West 134 154 900 -764 Descending FlightAware ADS-B
Sat 06:12:57 AM 44.8750 -93.2060 299° West 137 158 600 -720 Descending FlightAware ADS-B

Login

Don't have an account? Register now (free) for customized features, flight alerts, and more!